Time;durP1;ratioP1;P1;durP2;ratioP2;P2;SDS_P1;SDS_P2;PMS_P1;PMS_P2;Temp;Humidity;BMP_temperature;BMP_pressure;BME280_temperature;BME280_humidity;BME280_pressure;Samples;Min_cycle;Max_cycle;Signal;HPM_P1;HPM_P2
2022/03/05 00:02:07;;;;;;;33.37;15.87;;;;;;;1.03;77.74;101337.64;1700848;84;21021;-77
2022/03/05 00:04:34;;;;;;;30.10;14.30;;;;;;;1.05;77.85;101335.06;1700905;84;21282;-78
2022/03/05 00:07:01;;;;;;;31.23;14.17;;;;;;;1.06;77.86;101338.98;1700744;84;21028;-79
2022/03/05 00:09:28;;;;;;;26.80;14.23;;;;;;;1.04;77.59;101338.08;1701033;84;21080;-78
2022/03/05 00:11:55;;;;;;;34.43;13.77;;;;;;;1.04;77.74;101339.36;1700699;84;21467;-79
2022/03/05 00:14:22;;;;;;;26.90;13.20;;;;;;;1.08;77.90;101340.27;1700701;84;21292;-78
2022/03/05 00:16:49;;;;;;;32.87;15.70;;;;;;;1.08;77.89;101346.33;1700937;84;21861;-79
2022/03/05 00:19:16;;;;;;;38.27;17.90;;;;;;;1.08;77.77;101348.02;1700600;84;21016;-79
2022/03/05 00:21:44;;;;;;;39.10;19.17;;;;;;;1.04;77.81;101345.81;1701048;84;20993;-78
2022/03/05 00:24:11;;;;;;;33.70;17.53;;;;;;;1.03;77.82;101344.52;1700766;84;21479;-79
2022/03/05 00:26:38;;;;;;;45.40;19.80;;;;;;;1.02;77.86;101344.91;1701042;84;21001;-78
2022/03/05 00:29:05;;;;;;;40.30;16.97;;;;;;;0.99;77.78;101346.16;1700761;84;21141;-79
2022/03/05 00:31:32;;;;;;;33.57;15.83;;;;;;;0.97;77.79;101335.35;1700864;84;21017;-79
2022/03/05 00:33:59;;;;;;;33.43;15.80;;;;;;;0.95;77.89;101341.80;1700684;84;21100;-77
2022/03/05 00:36:26;;;;;;;35.17;15.63;;;;;;;0.97;77.96;101336.64;1700899;84;21525;-78
2022/03/05 00:38:53;;;;;;;36.33;16.10;;;;;;;0.96;77.96;101343.52;1700967;84;20997;-78
2022/03/05 00:41:20;;;;;;;39.07;18.33;;;;;;;0.95;77.97;101345.67;1701021;84;21136;-78
2022/03/05 00:43:48;;;;;;;41.80;17.93;;;;;;;0.94;77.96;101336.59;1700555;84;21056;-79
2022/03/05 00:46:15;;;;;;;38.80;18.23;;;;;;;0.93;78.02;101337.45;1713312;83;21502;-77
2022/03/05 00:48:43;;;;;;;40.00;18.23;;;;;;;0.95;78.12;101335.77;1717266;83;21028;-77
2022/03/05 00:51:10;;;;;;;33.13;16.33;;;;;;;0.97;78.29;101342.70;1717182;83;21027;-78
2022/03/05 00:53:37;;;;;;;36.50;16.70;;;;;;;1.00;78.30;101341.86;1717252;83;21181;-79
2022/03/05 00:56:05;;;;;;;32.33;16.93;;;;;;;0.99;78.16;101334.97;1717201;83;21029;-80
2022/03/05 00:58:31;;;;;;;34.77;16.30;;;;;;;0.98;78.19;101337.11;1717124;83;21072;-78
2022/03/05 01:00:59;;;;;;;31.67;16.67;;;;;;;0.97;78.28;101334.95;1717238;83;21023;-78
2022/03/05 01:03:26;;;;;;;28.13;15.27;;;;;;;0.99;78.29;101338.84;1717158;83;21036;-79
2022/03/05 01:05:54;;;;;;;31.13;16.17;;;;;;;1.00;78.39;101337.59;1717208;83;21886;-78
2022/03/05 01:08:21;;;;;;;31.43;15.50;;;;;;;1.02;78.30;101335.88;1717138;83;21040;-79
2022/03/05 01:10:48;;;;;;;34.20;16.33;;;;;;;1.02;78.24;101333.30;1717306;83;21032;-79
2022/03/05 01:13:16;;;;;;;33.67;16.13;;;;;;;1.00;78.22;101336.30;1717525;83;20981;-78
2022/03/05 01:15:43;;;;;;;34.33;16.70;;;;;;;1.01;78.28;101337.16;1717406;83;21510;-78
2022/03/05 01:18:10;;;;;;;36.40;16.90;;;;;;;1.00;78.30;101330.23;1717635;83;21838;-79
2022/03/05 01:20:37;;;;;;;35.43;17.67;;;;;;;1.00;78.34;101335.40;1717235;83;21027;-79
2022/03/05 01:23:04;;;;;;;35.37;16.93;;;;;;;1.01;78.34;101338.45;1717482;83;21502;-79
2022/03/05 01:25:33;;;;;;;34.37;17.17;;;;;;;1.01;78.39;101338.45;1717428;83;21040;-79
2022/03/05 01:28:00;;;;;;;32.43;17.23;;;;;;;1.00;78.34;101337.98;1717442;83;21091;-79
2022/03/05 01:30:27;;;;;;;37.03;17.60;;;;;;;0.99;78.31;101334.97;1717276;83;21382;-79
2022/03/05 01:32:55;;;;;;;38.17;18.13;;;;;;;0.97;78.27;101339.23;1717261;83;21506;-79
2022/03/05 01:35:22;;;;;;;38.03;19.13;;;;;;;0.96;78.32;101340.08;1717331;83;20932;-78
2022/03/05 01:37:49;;;;;;;35.93;18.23;;;;;;;0.94;78.39;101342.63;1717355;83;21008;-78
2022/03/05 01:40:18;;;;;;;33.30;17.80;;;;;;;0.93;78.44;101337.45;1717340;83;21071;-79
2022/03/05 01:42:45;;;;;;;33.47;16.97;;;;;;;0.93;78.50;101334.44;1717362;83;21137;-79
2022/03/05 01:45:13;;;;;;;34.83;18.47;;;;;;;0.95;78.72;101334.05;1716767;83;21020;-79
2022/03/05 01:47:41;;;;;;;33.63;17.63;;;;;;;0.96;78.59;101333.20;1715020;83;21079;-79
2022/03/05 01:50:09;;;;;;;30.50;16.50;;;;;;;0.96;78.59;101333.20;1715014;83;21072;-79
2022/03/05 01:52:36;;;;;;;26.60;16.43;;;;;;;0.98;78.70;101331.95;1715266;83;21133;-79
2022/03/05 01:55:05;;;;;;;29.07;15.03;;;;;;;0.98;78.55;101329.37;1714983;83;21131;-79
2022/03/05 01:57:33;;;;;;;26.13;15.97;;;;;;;0.97;78.58;101332.37;1715156;83;21406;-79
2022/03/05 02:00:00;;;;;;;28.00;16.40;;;;;;;0.97;78.56;101326.31;1714918;83;21088;-78
2022/03/05 02:02:27;;;;;;;31.30;15.97;;;;;;;0.97;78.56;101327.22;1715225;83;21075;-78
2022/03/05 02:04:54;;;;;;;28.57;16.80;;;;;;;0.98;78.58;101321.63;1715141;83;21126;-78
2022/03/05 02:07:21;;;;;;;25.77;14.67;;;;;;;0.97;78.51;101320.77;1715023;83;21239;-77
2022/03/05 02:09:49;;;;;;;26.77;15.27;;;;;;;0.96;78.46;101316.42;1715148;83;21004;-78
2022/03/05 02:12:15;;;;;;;26.67;15.10;;;;;;;0.97;78.51;101319.86;1715305;83;21056;-78
2022/03/05 02:14:42;;;;;;;28.27;14.43;;;;;;;0.96;78.41;101316.84;1715086;83;21083;-78
2022/03/05 02:17:10;;;;;;;25.67;14.27;;;;;;;0.96;78.47;101315.55;1715324;83;21028;-78
2022/03/05 02:19:37;;;;;;;24.87;13.37;;;;;;;0.94;78.32;101321.11;1694622;83;21828;-78
2022/03/05 02:22:06;;;;;;;26.33;13.47;;;;;;;0.93;78.43;101319.38;1715142;83;21020;-78
2022/03/05 02:24:38;;;;;;;25.83;13.07;;;;;;;0.91;78.38;101311.59;1715171;83;21036;-79
2022/03/05 02:27:07;;;;;;;22.40;11.60;;;;;;;0.91;78.35;101320.63;1715069;83;21032;-79
2022/03/05 02:29:35;;;;;;;22.73;11.13;;;;;;;0.88;78.23;101322.73;1715196;83;21079;-78
2022/03/05 02:32:04;;;;;;;19.47;11.23;;;;;;;0.88;78.20;101327.90;1715009;83;21807;-79
2022/03/05 02:34:31;;;;;;;23.43;11.07;;;;;;;0.85;78.12;101323.97;1715120;83;21004;-78
2022/03/05 02:36:58;;;;;;;16.47;9.77;;;;;;;0.83;78.04;101320.92;1715052;83;20997;-78
2022/03/05 02:39:25;;;;;;;18.83;10.30;;;;;;;0.81;78.05;101324.78;1715319;83;21024;-78
2022/03/05 02:41:55;;;;;;;17.43;10.20;;;;;;;0.80;78.09;101323.45;1714971;83;21028;-79
2022/03/05 02:44:23;;;;;;;18.93;10.50;;;;;;;0.80;78.02;101327.31;1715233;83;21234;-79
2022/03/05 02:46:51;;;;;;;17.60;10.87;;;;;;;0.76;78.02;101322.53;1716415;83;21007;-79
2022/03/05 02:49:18;;;;;;;14.93;9.30;;;;;;;0.75;78.04;101324.67;1717348;83;21536;-80
2022/03/05 02:51:45;;;;;;;20.37;10.63;;;;;;;0.72;78.00;101324.63;1717255;83;21005;-78
2022/03/05 02:54:12;;;;;;;17.00;9.53;;;;;;;0.70;77.96;101321.56;1717510;83;21035;-79
2022/03/05 02:56:39;;;;;;;16.03;8.83;;;;;;;0.67;77.93;101324.95;1717313;83;21091;-78
2022/03/05 02:59:07;;;;;;;16.70;9.80;;;;;;;0.65;77.92;101327.92;1717442;83;21032;-79
2022/03/05 03:01:34;;;;;;;15.27;8.30;;;;;;;0.61;77.85;101323.14;1717242;83;20996;-79
2022/03/05 03:04:03;;;;;;;15.60;8.30;;;;;;;0.60;77.79;101326.54;1717483;83;21044;-79
2022/03/05 03:06:31;;;;;;;18.03;8.63;;;;;;;0.56;77.79;101328.63;1717248;83;20996;-78
2022/03/05 03:08:58;;;;;;;14.10;8.00;;;;;;;0.54;77.72;101322.56;1717421;83;21283;-79
2022/03/05 03:11:26;;;;;;;11.30;6.63;;;;;;;0.50;77.64;101319.49;1717439;83;21032;-79
2022/03/05 03:13:53;;;;;;;16.90;7.63;;;;;;;0.47;77.56;101315.96;1717319;83;21056;-78
2022/03/05 03:16:20;;;;;;;13.63;7.47;;;;;;;0.43;77.55;101327.94;1717567;83;21020;-79
2022/03/05 03:18:47;;;;;;;14.00;7.63;;;;;;;0.40;77.59;101324.02;1717186;83;21035;-79
2022/03/05 03:21:15;;;;;;;15.60;7.27;;;;;;;0.38;77.73;101325.27;1717504;83;21164;-78
2022/03/05 03:23:42;;;;;;;12.10;7.03;;;;;;;0.36;77.71;101323.48;1717165;83;20917;-78
2022/03/05 03:26:08;;;;;;;13.03;7.10;;;;;;;0.34;77.65;101323.91;1717504;83;21008;-78
2022/03/05 03:28:36;;;;;;;11.23;6.87;;;;;;;0.32;77.69;101323.86;1717286;83;20996;-79
2022/03/05 03:31:03;;;;;;;10.27;6.27;;;;;;;0.32;77.73;101325.15;1717575;83;21088;-79
2022/03/05 03:33:30;;;;;;;12.23;6.83;;;;;;;0.34;77.93;101321.33;1717240;83;21521;-79
2022/03/05 03:35:57;;;;;;;11.20;6.90;;;;;;;0.33;77.60;101323.43;1717511;83;20989;-78
2022/03/05 03:38:26;;;;;;;11.47;6.57;;;;;;;0.30;77.62;101322.95;1717224;83;21044;-79
2022/03/05 03:40:53;;;;;;;15.00;6.60;;;;;;;0.30;77.62;101322.09;1717579;83;21052;-79
2022/03/05 03:43:20;;;;;;;12.93;6.67;;;;;;;0.28;77.50;101319.89;1717206;83;21024;-79
2022/03/05 03:45:47;;;;;;;11.93;6.07;;;;;;;0.24;77.47;101321.55;1717140;83;21151;-79
2022/03/05 03:48:14;;;;;;;13.23;6.73;;;;;;;0.24;77.54;101329.28;1714911;83;21055;-79
2022/03/05 03:50:42;;;;;;;13.23;7.27;;;;;;;0.24;77.54;101327.99;1715185;83;21000;-79
2022/03/05 03:53:09;;;;;;;15.70;8.00;;;;;;;0.25;77.55;101332.33;1714987;83;21561;-78
2022/03/05 03:55:36;;;;;;;14.77;7.20;;;;;;;0.24;77.44;101335.73;1715188;83;22018;-79
2022/03/05 03:58:03;;;;;;;12.93;6.93;;;;;;;0.21;77.28;101336.53;1714936;83;21081;-80
2022/03/05 04:00:30;;;;;;;13.43;7.83;;;;;;;0.17;77.30;101337.33;1714880;83;21028;-79
2022/03/05 04:02:57;;;;;;;14.20;8.73;;;;;;;0.16;77.36;101338.57;1714963;83;21040;-78
2022/03/05 04:05:24;;;;;;;15.47;8.13;;;;;;;0.14;77.33;101341.52;1714329;83;21027;-78
2022/03/05 04:10:38;;;;;;;13.83;7.70;;;;;;;0.06;77.23;101340.10;1698259;84;21143;-79
2022/03/05 04:13:05;;;;;;;15.50;8.30;;;;;;;0.01;77.26;101335.27;1698342;84;21018;-77
2022/03/05 04:15:32;;;;;;;15.87;8.83;;;;;;;-0.05;77.15;101337.30;1698250;84;20994;-79
2022/03/05 04:17:59;;;;;;;12.03;7.30;;;;;;;-0.10;77.25;101338.90;1698453;84;21019;-80
2022/03/05 04:20:26;;;;;;;14.27;7.57;;;;;;;-0.12;77.36;101335.41;1698300;84;21068;-80
2022/03/05 04:22:53;;;;;;;15.00;7.60;;;;;;;-0.13;77.46;101337.55;1698234;84;21255;-78
2022/03/05 04:25:21;;;;;;;15.20;7.40;;;;;;;-0.14;77.46;101339.69;1698241;84;21064;-79
2022/03/05 04:27:48;;;;;;;17.90;9.30;;;;;;;-0.15;77.51;101334.06;1698536;84;20990;-78
2022/03/05 04:30:15;;;;;;;17.60;9.60;;;;;;;-0.16;77.51;101330.18;1698204;84;21072;-80
2022/03/05 04:32:41;;;;;;;18.67;9.03;;;;;;;-0.18;77.42;101333.13;1698511;84;20998;-78
2022/03/05 04:35:09;;;;;;;15.77;8.97;;;;;;;-0.24;77.39;101333.45;1698222;84;21070;-78
2022/03/05 04:37:37;;;;;;;15.43;8.77;;;;;;;-0.27;77.41;101338.53;1698339;84;21072;-78
2022/03/05 04:40:06;;;;;;;16.30;8.33;;;;;;;-0.30;77.36;101340.18;1698131;84;21525;-78
2022/03/05 04:42:34;;;;;;;15.20;8.60;;;;;;;-0.34;77.33;101340.51;1698385;84;21025;-79
2022/03/05 04:45:02;;;;;;;16.43;9.00;;;;;;;-0.38;77.41;101341.29;1698209;84;21016;-78
2022/03/05 04:47:29;;;;;;;15.73;9.10;;;;;;;-0.42;77.41;101339.88;1698188;84;21899;-78
2022/03/05 04:49:57;;;;;;;16.53;9.00;;;;;;;-0.45;77.49;101348.41;1698247;84;21562;-78
2022/03/05 04:52:24;;;;;;;15.67;9.13;;;;;;;-0.48;77.58;101354.78;1698437;84;20993;-78
2022/03/05 04:54:51;;;;;;;16.63;8.37;;;;;;;-0.50;77.64;101357.34;1698289;84;21017;-79
2022/03/05 04:57:19;;;;;;;14.23;7.67;;;;;;;-0.53;77.63;101352.09;1698679;84;21219;-78
2022/03/05 04:59:46;;;;;;;15.97;8.80;;;;;;;-0.57;77.57;101357.15;1698381;84;21227;-78
2022/03/05 05:02:13;;;;;;;15.37;8.57;;;;;;;-0.62;77.76;101354.45;1698553;84;21020;-77
2022/03/05 05:04:40;;;;;;;19.90;10.37;;;;;;;-0.65;77.75;101363.39;1698312;84;20941;-79
2022/03/05 05:07:07;;;;;;;19.37;10.40;;;;;;;-0.70;77.72;101360.70;1698638;84;21044;-77
2022/03/05 05:09:34;;;;;;;14.03;8.03;;;;;;;-0.74;77.79;101361.89;1698288;84;21013;-78
2022/03/05 05:12:03;;;;;;;17.70;9.13;;;;;;;-0.77;77.74;101359.25;1698691;84;21082;-78
2022/03/05 05:14:29;;;;;;;15.97;8.67;;;;;;;-0.83;77.79;101357.78;1698226;84;21021;-78
2022/03/05 05:16:57;;;;;;;16.83;8.80;;;;;;;-0.87;77.91;101358.14;1698624;84;21068;-78
2022/03/05 05:19:27;;;;;;;16.50;8.80;;;;;;;-0.91;77.82;101359.77;1698468;84;21015;-77
2022/03/05 05:22:06;;;;;;;16.57;8.83;;;;;;;-0.98;77.84;101352.72;1698486;84;21016;-77
2022/03/05 05:24:36;;;;;;;20.83;9.63;;;;;;;-1.02;77.89;101356.48;1698272;84;21132;-77
2022/03/05 05:27:05;;;;;;;24.80;13.85;;;;;;;-1.06;78.04;101361.08;1698337;84;20933;-77
2022/03/05 05:29:32;;;;;;;27.40;14.40;;;;;;;-1.09;78.04;101366.15;1698495;84;21005;-78
2022/03/05 05:31:59;;;;;;;26.03;13.73;;;;;;;-1.15;78.07;101362.58;1698431;84;21447;-81
2022/03/05 05:34:26;;;;;;;20.73;11.67;;;;;;;-1.20;78.04;101362.87;1698648;84;21084;-79
2022/03/05 05:36:53;;;;;;;19.60;9.40;;;;;;;-1.25;78.01;101363.16;1698283;84;21128;-77
2022/03/05 05:39:20;;;;;;;20.47;9.30;;;;;;;-1.30;77.91;101368.63;1698521;84;20990;-77
2022/03/05 05:41:48;;;;;;;15.77;8.53;;;;;;;-1.36;77.99;101375.76;1698370;84;21460;-77
2022/03/05 05:44:15;;;;;;;16.37;8.93;;;;;;;-1.42;77.96;101380.71;1698611;84;21486;-77
2022/03/05 05:46:42;;;;;;;18.63;10.13;;;;;;;-1.46;78.08;101380.61;1699479;84;21040;-77
2022/03/05 05:49:09;;;;;;;19.60;10.07;;;;;;;-1.49;78.16;101374.09;1703060;84;21137;-77
2022/03/05 05:51:37;;;;;;;19.57;10.07;;;;;;;-1.51;78.17;101379.60;1703014;84;20941;-77
2022/03/05 05:54:05;;;;;;;20.77;11.03;;;;;;;-1.55;78.27;101377.37;1702887;83;32581;-78
2022/03/05 05:56:32;;;;;;;18.73;10.07;;;;;;;-1.59;78.24;101381.53;1691392;83;21278;-77
2022/03/05 05:58:59;;;;;;;20.53;10.43;;;;;;;-1.62;78.36;101381.45;1691503;83;21056;-82
2022/03/05 06:01:27;;;;;;;19.97;9.60;;;;;;;-1.62;78.37;101385.72;1688587;85;21148;-82
2022/03/05 06:03:54;;;;;;;17.83;10.10;;;;;;;-1.63;78.53;101382.70;1688819;85;21036;-81
2022/03/05 06:06:23;;;;;;;19.60;9.03;;;;;;;-1.64;78.64;101384.38;1688535;85;21042;-77
2022/03/05 06:08:51;;;;;;;20.20;10.83;;;;;;;-1.64;78.71;101385.66;1689010;85;21080;-78
2022/03/05 06:11:18;;;;;;;21.60;10.23;;;;;;;-1.64;78.80;101386.95;1688536;85;21047;-79
2022/03/05 06:13:45;;;;;;;20.13;9.50;;;;;;;-1.64;79.01;101391.22;1688978;85;21823;-81
2022/03/05 06:16:13;;;;;;;22.13;11.03;;;;;;;-1.62;79.14;101383.15;1694344;83;21478;-77
2022/03/05 06:18:40;;;;;;;21.27;11.97;;;;;;;-1.61;79.24;101388.34;1692401;83;21039;-79
2022/03/05 06:21:08;;;;;;;18.00;10.17;;;;;;;-1.58;79.30;101391.39;1688569;85;20997;-78
2022/03/05 06:23:37;;;;;;;23.73;11.50;;;;;;;-1.56;79.38;101391.03;1688797;85;20997;-77
2022/03/05 06:26:04;;;;;;;19.73;10.50;;;;;;;-1.53;79.50;101394.10;1688639;83;21199;-81
2022/03/05 06:28:31;;;;;;;18.37;9.43;;;;;;;-1.47;79.63;101399.41;1688683;85;21466;-83
2022/03/05 06:30:59;;;;;;;17.93;10.17;;;;;;;-1.45;79.61;101396.05;1688563;85;21024;-80
2022/03/05 06:33:26;;;;;;;23.70;13.83;;;;;;;-1.43;79.74;101398.27;1688912;84;21020;-82
2022/03/05 06:35:53;;;;;;;28.47;14.40;;;;;;;-1.36;79.79;101407.01;1688489;85;21033;-81
2022/03/05 06:38:21;;;;;;;22.07;12.80;;;;;;;-1.35;79.83;101404.49;1693597;83;21553;-80
2022/03/05 06:40:49;;;;;;;23.43;10.17;;;;;;;-1.29;79.88;101405.50;1692580;83;21070;-82
2022/03/05 06:43:16;;;;;;;14.40;8.37;;;;;;;-1.24;80.04;101402.22;1692842;83;21032;-78
2022/03/05 06:45:43;;;;;;;22.10;8.33;;;;;;;-1.18;80.00;101403.66;1703502;83;20996;-78
2022/03/05 06:48:10;;;;;;;18.73;9.47;;;;;;;-1.12;80.07;101414.11;1681344;84;21052;-81
2022/03/05 06:50:38;;;;;;;23.87;15.53;;;;;;;-1.06;80.09;101415.11;1657279;86;21072;-81
2022/03/05 06:53:05;;;;;;;14.17;8.53;;;;;;;-1.01;80.04;101418.69;1665400;86;21052;-82
2022/03/05 06:55:32;;;;;;;13.67;8.03;;;;;;;-0.96;80.01;101414.53;1665809;86;21053;-80
2022/03/05 06:57:59;;;;;;;11.90;6.13;;;;;;;-0.91;79.99;101420.25;1665706;86;21078;-85
2022/03/05 07:00:26;;;;;;;11.27;7.07;;;;;;;-0.86;79.92;101419.48;1665548;86;21522;-84
2022/03/05 07:02:53;;;;;;;13.73;6.83;;;;;;;-0.84;79.91;101416.55;1665626;86;21174;-81
2022/03/05 07:05:20;;;;;;;17.53;11.27;;;;;;;-0.78;79.93;101416.70;1665471;86;21310;-82
2022/03/05 07:07:47;;;;;;;39.00;29.47;;;;;;;-0.75;79.88;101417.67;1665687;86;20957;-81
2022/03/05 07:10:14;;;;;;;14.50;9.57;;;;;;;-0.72;79.80;101412.98;1665448;86;22163;-82
2022/03/05 07:12:41;;;;;;;15.27;8.63;;;;;;;-0.69;79.79;101422.97;1665726;86;21075;-82
2022/03/05 07:15:09;;;;;;;15.10;7.07;;;;;;;-0.66;79.79;101411.88;1665445;86;21153;-83
2022/03/05 07:17:35;;;;;;;15.57;9.30;;;;;;;-0.61;79.74;101418.41;1665474;86;21053;-82
2022/03/05 07:20:05;;;;;;;28.33;17.43;;;;;;;-0.58;79.70;101418.48;1665633;86;21048;-82
2022/03/05 07:22:32;;;;;;;14.27;7.90;;;;;;;-0.54;79.69;101419.02;1665415;86;21002;-89
2022/03/05 07:24:58;;;;;;;18.67;12.23;;;;;;;-0.53;79.69;101424.20;1665708;86;21056;-79
2022/03/05 07:27:25;;;;;;;27.13;14.33;;;;;;;-0.47;79.77;101419.64;1665781;86;21130;-78
2022/03/05 07:29:52;;;;;;;12.17;7.80;;;;;;;-0.41;79.79;101426.64;1665374;86;21028;-81
2022/03/05 07:32:19;;;;;;;17.63;9.27;;;;;;;-0.37;79.72;101422.88;1665877;86;20914;-83
2022/03/05 07:34:46;;;;;;;13.07;6.93;;;;;;;-0.34;79.68;101420.78;1665393;86;21030;-84
2022/03/05 07:37:13;;;;;;;12.50;7.40;;;;;;;-0.28;79.77;101425.69;1660792;84;21351;-83
2022/03/05 07:39:40;;;;;;;13.97;6.87;;;;;;;-0.24;79.63;101427.91;1669551;84;21231;-80
2022/03/05 07:42:08;;;;;;;12.90;6.83;;;;;;;-0.20;79.52;101432.28;1660175;86;21012;-82
2022/03/05 07:44:35;;;;;;;55.40;23.07;;;;;;;-0.15;79.46;101424.67;1669892;84;21024;-84
2022/03/05 07:47:03;;;;;;;31.17;15.90;;;;;;;-0.11;79.55;101425.17;1660608;86;21040;-82
2022/03/05 07:49:30;;;;;;;15.93;7.97;;;;;;;-0.07;79.39;101429.58;1722009;83;21031;-77
2022/03/05 07:51:57;;;;;;;15.33;7.23;;;;;;;-0.03;79.48;101431.38;1704591;83;21186;-82
2022/03/05 07:54:24;;;;;;;11.63;7.00;;;;;;;0.03;79.46;101434.13;1712897;83;21032;-79
2022/03/05 07:56:51;;;;;;;13.23;7.37;;;;;;;0.12;79.73;101433.45;1722909;83;21000;-79
2022/03/05 07:59:19;;;;;;;13.30;7.03;;;;;;;0.20;79.65;101438.36;1720640;83;21025;-80
2022/03/05 08:01:46;;;;;;;12.53;6.87;;;;;;;0.28;79.52;101441.08;1720257;83;21008;-79
2022/03/05 08:04:13;;;;;;;14.77;6.90;;;;;;;0.32;79.36;101435.17;1722611;83;21141;-79
2022/03/05 08:06:40;;;;;;;12.50;6.97;;;;;;;0.38;79.23;101432.71;1720898;83;21024;-78
2022/03/05 08:09:07;;;;;;;35.50;18.20;;;;;;;0.40;79.15;101431.91;1693599;84;21606;-78
2022/03/05 08:11:34;;;;;;;19.17;11.70;;;;;;;0.44;79.00;101436.31;1697806;83;21036;-79
2022/03/05 08:14:01;;;;;;;16.30;9.17;;;;;;;0.48;79.03;101431.21;1693566;84;21028;-80
2022/03/05 08:16:28;;;;;;;18.10;9.57;;;;;;;0.56;79.11;101432.25;1694386;83;21127;-79
2022/03/05 08:18:55;;;;;;;15.63;10.00;;;;;;;0.62;79.14;101429.78;1693952;84;20996;-78
2022/03/05 08:21:22;;;;;;;20.73;9.80;;;;;;;0.73;79.23;101438.60;1697978;83;21493;-78
2022/03/05 08:23:50;;;;;;;10.30;6.17;;;;;;;0.80;79.01;101437.00;1694021;83;21575;-79
2022/03/05 08:26:17;;;;;;;18.47;10.27;;;;;;;0.88;79.02;101443.19;1694003;84;21053;-80
2022/03/05 08:28:45;;;;;;;12.70;7.23;;;;;;;0.98;78.81;101447.69;1694660;84;21953;-79
2022/03/05 08:31:12;;;;;;;16.30;9.80;;;;;;;1.06;78.72;101447.41;1696514;83;21502;-77
2022/03/05 08:33:40;;;;;;;13.67;6.93;;;;;;;1.13;78.54;101441.06;1698719;83;21678;-78
2022/03/05 08:36:10;;;;;;;11.90;5.83;;;;;;;1.23;78.65;101441.27;1699437;83;21437;-78
2022/03/05 08:38:37;;;;;;;9.37;5.00;;;;;;;1.38;78.79;101441.08;1702054;83;21021;-85
2022/03/05 08:41:04;;;;;;;13.07;6.70;;;;;;;1.54;78.54;101444.38;1693988;83;21802;-82
2022/03/05 08:43:31;;;;;;;10.30;5.97;;;;;;;1.72;78.38;101452.87;1698714;83;21001;-80
2022/03/05 08:46:01;;;;;;;9.13;5.47;;;;;;;1.83;78.10;101453.91;1701066;83;21572;-81
2022/03/05 08:48:29;;;;;;;9.30;5.30;;;;;;;2.01;78.23;101452.00;1697561;83;20974;-78
2022/03/05 08:50:56;;;;;;;11.43;5.17;;;;;;;2.17;78.01;101453.11;1697825;83;21530;-80
2022/03/05 08:53:23;;;;;;;11.10;5.87;;;;;;;2.37;77.89;101455.53;1708459;83;21131;-80
2022/03/05 08:55:52;;;;;;;14.40;7.10;;;;;;;2.53;77.43;101453.16;1722847;83;21067;-80
2022/03/05 08:58:21;;;;;;;9.73;4.77;;;;;;;2.71;77.17;101451.21;1723005;83;21548;-79
2022/03/05 09:00:49;;;;;;;7.72;4.90;;;;;;;2.82;76.93;101456.95;1723025;83;21028;-79
2022/03/05 09:03:17;;;;;;;9.70;5.23;;;;;;;3.01;77.00;101454.58;1723033;83;21031;-80
2022/03/05 09:05:46;;;;;;;9.50;5.40;;;;;;;3.15;76.21;101459.91;1722805;83;22007;-80
2022/03/05 09:08:15;;;;;;;11.13;5.17;;;;;;;3.22;75.88;101458.70;1702179;83;21541;-80
2022/03/05 09:10:42;;;;;;;12.97;6.60;;;;;;;3.39;76.10;101461.45;1693534;84;21011;-77
2022/03/05 09:13:09;;;;;;;13.27;7.77;;;;;;;3.55;75.47;101456.85;1694016;84;21046;-81
2022/03/05 09:15:36;;;;;;;12.87;7.07;;;;;;;3.64;75.35;101462.97;1693959;84;21008;-79
2022/03/05 09:18:03;;;;;;;12.17;6.50;;;;;;;3.78;75.24;101458.77;1693818;84;21127;-77
2022/03/05 09:20:30;;;;;;;11.47;6.90;;;;;;;3.91;74.99;101456.70;1694097;84;21043;-76
2022/03/05 09:22:58;;;;;;;10.37;6.30;;;;;;;4.01;74.54;101457.63;1693941;84;21024;-77
2022/03/05 09:25:26;;;;;;;12.30;5.90;;;;;;;3.98;73.87;101457.60;1693934;84;21468;-76
2022/03/05 09:27:52;;;;;;;10.93;6.10;;;;;;;3.92;73.70;101462.32;1694128;84;21055;-77
2022/03/05 09:30:20;;;;;;;12.80;7.17;;;;;;;3.85;73.32;101464.85;1693754;84;21485;-76
2022/03/05 09:32:48;;;;;;;10.83;6.73;;;;;;;3.76;73.11;101463.92;1693778;84;21005;-76
2022/03/05 09:35:15;;;;;;;16.17;8.67;;;;;;;3.67;72.91;101465.59;1694008;84;21043;-77
2022/03/05 09:37:42;;;;;;;13.73;7.93;;;;;;;3.56;72.63;101466.35;1705603;83;21080;-78
2022/03/05 09:40:12;;;;;;;19.47;9.63;;;;;;;3.46;72.68;101466.25;1722989;83;21001;-78
2022/03/05 09:42:44;;;;;;;16.10;9.80;;;;;;;3.39;72.63;101461.88;1697606;83;21142;-77
2022/03/05 09:45:14;;;;;;;17.20;9.07;;;;;;;3.35;72.78;101461.86;1693727;84;21001;-77
2022/03/05 09:47:44;;;;;;;21.75;12.58;;;;;;;3.33;72.58;101464.86;1693895;84;21459;-78
2022/03/05 09:50:13;;;;;;;16.40;11.37;;;;;;;3.31;72.62;101465.26;1693824;84;21032;-77
2022/03/05 09:52:40;;;;;;;17.93;12.10;;;;;;;3.32;72.70;101463.09;1693825;84;21036;-78
2022/03/05 09:55:09;;;;;;;18.13;10.77;;;;;;;3.28;72.30;101457.45;1666068;84;21152;-78
2022/03/05 09:57:37;;;;;;;18.97;9.10;;;;;;;3.25;72.36;101458.73;1694062;84;21574;-77
2022/03/05 10:00:08;;;;;;;12.57;8.10;;;;;;;3.32;72.60;101459.64;1693843;84;21597;-76
2022/03/05 10:02:36;;;;;;;14.57;9.50;;;;;;;3.42;72.67;101455.43;1694233;84;21036;-77
2022/03/05 10:05:24;;;;;;;18.47;11.43;;;;;;;3.49;72.46;101458.09;1720235;83;21019;-77
2022/03/05 10:08:08;;;;;;;14.10;9.17;;;;;;;3.51;72.10;101455.50;1721200;83;21351;-77
2022/03/05 10:10:51;;;;;;;15.80;9.53;;;;;;;3.46;71.91;101458.48;1693874;83;21036;-77
2022/03/05 10:13:25;;;;;;;16.63;10.43;;;;;;;3.44;71.80;101453.73;1694407;83;21040;-77
2022/03/05 10:15:56;;;;;;;17.13;10.03;;;;;;;3.42;71.78;101460.61;1693838;84;21001;-77
2022/03/05 10:18:35;;;;;;;13.73;9.00;;;;;;;3.45;71.83;101455.45;1694029;83;21020;-78
2022/03/05 10:21:08;;;;;;;13.20;8.87;;;;;;;3.52;71.66;101450.34;1722641;83;21256;-78
2022/03/05 10:23:39;;;;;;;15.53;9.00;;;;;;;3.62;71.51;101456.46;1704018;83;21036;-78
2022/03/05 10:26:09;;;;;;;13.22;8.93;;;;;;;3.85;71.40;101455.77;1693936;84;21059;-78
2022/03/05 10:28:38;;;;;;;;;;;;;;;4.00;71.07;101453.30;1696635;84;21099;-78
2022/03/05 10:31:09;;;;;;;21.43;10.83;;;;;;;4.27;70.63;101443.94;1667053;86;20520;-78
2022/03/05 10:33:45;;;;;;;21.83;11.60;;;;;;;4.49;70.52;101440.62;1688916;84;21104;-78
2022/03/05 10:36:25;;;;;;;19.47;10.97;;;;;;;4.48;69.95;101439.72;1688649;85;21087;-78
2022/03/05 10:38:57;;;;;;;13.83;8.70;;;;;;;4.44;69.63;101445.78;1689028;85;21524;-78
2022/03/05 10:41:37;;;;;;;9.93;7.40;;;;;;;4.41;69.30;101434.52;1688597;84;21039;-77
2022/03/05 10:44:17;;;;;;;11.43;6.83;;;;;;;4.40;69.03;101444.01;1688940;85;21098;-77
2022/03/05 10:46:56;;;;;;;11.68;7.03;;;;;;;4.39;68.74;101438.39;1688805;85;21149;-77
2022/03/05 10:49:31;;;;;;;9.73;6.50;;;;;;;4.33;68.48;101434.47;1661023;85;20992;-78
2022/03/05 10:52:06;;;;;;;10.43;6.03;;;;;;;4.30;68.38;101430.56;1688063;85;21474;-77
2022/03/05 10:54:40;;;;;;;10.97;6.60;;;;;;;4.28;68.12;101430.13;1688955;85;21039;-77
2022/03/05 10:57:23;;;;;;;9.80;5.87;;;;;;;4.24;67.64;101431.84;1688984;85;21393;-77
2022/03/05 10:59:55;;;;;;;7.90;5.73;;;;;;;4.37;67.73;101428.42;1688487;85;21154;-77
2022/03/05 11:02:23;;;;;;;7.83;4.97;;;;;;;4.74;67.23;101424.70;1686514;85;20952;-77
2022/03/05 11:04:51;;;;;;;8.20;5.10;;;;;;;4.80;66.61;101422.12;1688597;85;21020;-77
2022/03/05 11:07:22;;;;;;;8.33;4.77;;;;;;;4.81;66.40;101421.69;1688508;85;21031;-77
2022/03/05 11:09:49;;;;;;;8.30;5.60;;;;;;;4.76;66.08;101419.50;1688749;85;21281;-77
2022/03/05 11:12:21;;;;;;;9.17;6.10;;;;;;;4.73;65.85;101417.75;1688546;85;21822;-77
2022/03/05 11:14:51;;;;;;;16.83;11.17;;;;;;;4.76;65.81;101417.76;1688413;85;21023;-77
2022/03/05 11:17:19;;;;;;;6.92;4.67;;;;;;;4.73;65.28;101418.19;1688702;85;21035;-77
2022/03/05 11:19:49;;;;;;;10.30;4.90;;;;;;;4.58;64.85;101414.69;1688509;85;21044;-77
2022/03/05 11:22:17;;;;;;;10.13;5.90;;;;;;;4.48;64.25;101414.20;1659868;85;21104;-77
2022/03/05 11:24:45;;;;;;;8.10;4.70;;;;;;;4.40;64.14;101412.86;1688542;85;21881;-77
2022/03/05 11:27:14;;;;;;;6.07;4.30;;;;;;;4.36;64.09;101418.05;1688779;85;20980;-77